Time;durP1;ratioP1;P1;durP2;ratioP2;P2;SDS_P1;SDS_P2;PMS_P1;PMS_P2;Temp;Humidity;BMP_temperature;BMP_pressure;BME280_temperature;BME280_humidity;BME280_pressure;Samples;Min_cycle;Max_cycle;Signal;HPM_P1;HPM_P2
2022/05/05 00:00:08;;;;;;;2.05;1.48;;;17.90;58.80;;;;;;5005520;28;20247;-64
2022/05/05 00:02:38;;;;;;;1.83;1.65;;;18.00;58.90;;;;;;5005170;28;20220;-69
2022/05/05 00:05:10;;;;;;;2.00;1.60;;;18.00;58.80;;;;;;5006111;28;20201;-65
2022/05/05 00:07:41;;;;;;;1.65;1.20;;;18.00;59.40;;;;;;5006311;28;20217;-63
2022/05/05 00:15:47;;;;;;;2.92;1.73;;;18.10;59.00;;;;;;5006365;28;20204;-65
2022/05/05 00:18:18;;;;;;;1.77;1.40;;;18.10;58.90;;;;;;5004491;28;20229;-64
2022/05/05 00:20:49;;;;;;;1.95;1.45;;;18.10;59.00;;;;;;5006342;28;20188;-66
2022/05/05 00:23:19;;;;;;;1.83;1.20;;;18.10;59.10;;;;;;5006973;28;20251;-64
2022/05/05 00:25:53;;;;;;;1.85;1.33;;;18.20;59.20;;;;;;5007253;28;20263;-64
2022/05/05 00:28:23;;;;;;;2.40;1.40;;;18.20;59.20;;;;;;5007608;28;20306;-66
2022/05/05 00:30:56;;;;;;;2.38;1.20;;;18.20;59.30;;;;;;5008245;28;20259;-68
2022/05/05 00:33:26;;;;;;;2.25;1.45;;;18.20;59.40;;;;;;5010009;28;20209;-63
2022/05/05 00:35:57;;;;;;;1.65;1.23;;;18.20;59.20;;;;;;5010022;28;20279;-67
2022/05/05 00:38:27;;;;;;;1.33;1.20;;;18.30;59.20;;;;;;5009345;28;20291;-65
2022/05/05 00:40:58;;;;;;;2.05;1.23;;;18.30;59.20;;;;;;5010278;28;20228;-66
2022/05/05 00:43:30;;;;;;;1.48;1.20;;;18.30;59.20;;;;;;5009226;28;20243;-66
2022/05/05 00:46:02;;;;;;;2.63;1.45;;;18.40;59.20;;;;;;5009212;28;20192;-64
2022/05/05 00:48:33;;;;;;;1.77;1.52;;;18.40;59.10;;;;;;5008825;28;20213;-63
2022/05/05 00:51:04;;;;;;;2.58;1.27;;;18.40;60.40;;;;;;5009454;28;20238;-63
2022/05/05 00:53:34;;;;;;;2.40;1.58;;;18.50;61.40;;;;;;5009297;28;20657;-67
2022/05/05 00:56:10;;;;;;;1.65;1.33;;;18.50;61.20;;;;;;5009604;28;20196;-65
2022/05/05 00:58:42;;;;;;;2.22;1.50;;;18.50;61.00;;;;;;5005184;28;20216;-63
2022/05/05 01:01:20;;;;;;;1.75;1.25;;;18.60;61.10;;;;;;5008855;28;20870;-64
2022/05/05 01:03:54;;;;;;;1.63;1.20;;;18.60;61.60;;;;;;5009960;28;20279;-63
2022/05/05 01:06:24;;;;;;;1.60;1.50;;;18.60;61.80;;;;;;5009077;28;20224;-64
2022/05/05 01:08:55;;;;;;;1.58;1.20;;;18.70;61.70;;;;;;5009104;28;20225;-64
2022/05/05 01:11:25;;;;;;;1.42;1.20;;;18.70;61.40;;;;;;5008374;28;20209;-67
2022/05/05 01:13:56;;;;;;;2.22;1.30;;;18.80;61.20;;;;;;5009747;28;20193;-65
2022/05/05 01:16:29;;;;;;;1.30;1.20;;;18.80;60.90;;;;;;5007462;28;20201;-66
2022/05/05 01:18:59;;;;;;;2.97;1.17;;;18.80;60.80;;;;;;5008628;28;20252;-67
2022/05/05 01:21:32;;;;;;;3.63;1.45;;;18.80;60.60;;;;;;5007737;28;20236;-65
2022/05/05 01:24:02;;;;;;;1.30;1.20;;;18.90;60.50;;;;;;5008432;28;20681;-71
2022/05/05 01:29:20;;;;;;;1.40;1.30;;;18.90;60.30;;;;;;5008037;28;20687;-69
2022/05/05 01:31:54;;;;;;;2.50;1.40;;;18.90;60.20;;;;;;5008139;28;20201;-68
2022/05/05 01:34:26;;;;;;;1.30;1.20;;;18.90;60.10;;;;;;5008546;28;20271;-64
2022/05/05 01:36:58;;;;;;;1.40;1.20;;;18.90;60.10;;;;;;5008973;28;20751;-64
2022/05/05 01:39:28;;;;;;;1.23;1.13;;;19.00;60.10;;;;;;5005947;28;20318;-64
2022/05/05 01:41:59;;;;;;;1.58;1.35;;;19.00;60.00;;;;;;5008464;28;20198;-68
2022/05/05 01:44:29;;;;;;;2.08;1.48;;;19.00;59.90;;;;;;5007939;28;20197;-68
2022/05/05 01:47:00;;;;;;;1.30;1.20;;;19.00;59.80;;;;;;5006998;28;20613;-67
2022/05/05 01:49:31;;;;;;;1.55;1.42;;;19.00;59.70;;;;;;5007190;28;20268;-66
2022/05/05 01:52:03;;;;;;;2.30;1.38;;;19.10;59.70;;;;;;5007835;28;20201;-63
2022/05/05 01:54:34;;;;;;;1.55;1.30;;;19.10;59.70;;;;;;4998879;28;20593;-68
2022/05/05 01:57:04;;;;;;;1.63;1.20;;;19.10;59.60;;;;;;4992957;28;20214;-63
2022/05/05 01:59:36;;;;;;;1.75;1.48;;;19.10;59.50;;;;;;4993246;28;20265;-70
2022/05/05 02:02:07;;;;;;;1.50;1.40;;;19.10;59.70;;;;;;4993465;28;20874;-65
2022/05/05 02:04:38;;;;;;;2.40;1.65;;;19.10;59.80;;;;;;4993247;28;20201;-65
2022/05/05 02:07:10;;;;;;;2.45;1.70;;;19.10;59.80;;;;;;4992801;28;20217;-67
2022/05/05 02:09:41;;;;;;;1.30;1.20;;;19.20;59.80;;;;;;4992351;28;20621;-63
2022/05/05 02:12:12;;;;;;;1.20;1.10;;;19.20;59.70;;;;;;4992373;28;20217;-64
2022/05/05 02:14:43;;;;;;;1.40;1.30;;;19.20;59.70;;;;;;4992655;28;20189;-63
2022/05/05 02:17:13;;;;;;;1.20;1.20;;;19.20;59.70;;;;;;4992602;28;20275;-63
2022/05/05 02:19:44;;;;;;;1.60;1.40;;;19.20;59.70;;;;;;4992878;28;20224;-64
2022/05/05 02:22:18;;;;;;;1.02;1.02;;;19.20;59.60;;;;;;4993088;28;20194;-64
2022/05/05 02:24:52;;;;;;;2.47;1.38;;;19.30;59.70;;;;;;4992621;28;20189;-69
2022/05/05 02:27:22;;;;;;;2.70;1.70;;;19.30;59.60;;;;;;4992749;28;20218;-67
2022/05/05 02:29:54;;;;;;;1.40;1.30;;;19.30;59.60;;;;;;4992799;28;20206;-63
2022/05/05 02:32:25;;;;;;;1.80;1.58;;;19.40;59.50;;;;;;4995156;28;20280;-64
2022/05/05 02:34:55;;;;;;;1.50;1.40;;;19.40;59.50;;;;;;4993035;28;20213;-63
2022/05/05 02:40:19;;;;;;;1.50;1.25;;;19.40;59.40;;;;;;4917351;28;20227;-63
2022/05/05 02:42:50;;;;;;;1.50;1.40;;;19.40;59.30;;;;;;4972739;28;20199;-67
2022/05/05 02:45:21;;;;;;;1.40;1.15;;;19.50;59.40;;;;;;4972885;28;20203;-67
2022/05/05 02:47:51;;;;;;;1.40;1.30;;;19.50;59.30;;;;;;4989360;28;20225;-65
2022/05/05 02:50:22;;;;;;;1.45;1.35;;;19.50;59.30;;;;;;4991874;28;20201;-64
2022/05/05 02:52:55;;;;;;;1.52;1.42;;;19.50;59.30;;;;;;4992116;28;20193;-63
2022/05/05 02:55:25;;;;;;;1.30;1.20;;;19.50;59.90;;;;;;4990954;28;20248;-64
2022/05/05 02:57:55;;;;;;;2.13;1.30;;;19.60;59.30;;;;;;5001533;28;20292;-65
2022/05/05 03:00:29;;;;;;;2.92;1.35;;;19.60;59.30;;;;;;5004183;28;20251;-67
2022/05/05 03:02:59;;;;;;;1.75;1.20;;;19.60;59.30;;;;;;5005444;28;20192;-63
2022/05/05 03:05:30;;;;;;;1.60;1.30;;;19.60;59.40;;;;;;5002592;28;20200;-63
2022/05/05 03:08:02;;;;;;;2.78;1.50;;;19.70;59.70;;;;;;5006504;28;20212;-64
2022/05/05 03:10:33;;;;;;;2.13;1.48;;;19.70;59.80;;;;;;5005543;28;20196;-64
2022/05/05 03:13:04;;;;;;;2.15;1.35;;;19.80;59.90;;;;;;5006386;28;20603;-67
2022/05/05 03:15:34;;;;;;;2.40;1.40;;;19.80;59.90;;;;;;5003978;28;20196;-64
2022/05/05 03:18:05;;;;;;;2.08;1.63;;;19.80;59.90;;;;;;5005990;28;20267;-64
2022/05/05 03:20:35;;;;;;;3.22;1.30;;;19.80;59.80;;;;;;5005282;28;20225;-64
2022/05/05 03:23:08;;;;;;;2.08;1.38;;;19.90;59.80;;;;;;5006801;28;20247;-63
2022/05/05 03:25:39;;;;;;;6.72;1.75;;;19.90;59.70;;;;;;5005284;28;20263;-66
2022/05/05 03:28:10;;;;;;;2.03;1.60;;;19.90;59.60;;;;;;5006012;28;20217;-68
2022/05/05 03:30:40;;;;;;;1.40;1.30;;;19.90;59.50;;;;;;5005216;28;20248;-64
2022/05/05 03:33:11;;;;;;;3.38;1.50;;;20.00;59.40;;;;;;5005984;28;20649;-64
2022/05/05 03:35:41;;;;;;;3.05;1.20;;;20.00;59.30;;;;;;5005881;28;20234;-68
2022/05/05 03:38:14;;;;;;;2.70;1.27;;;20.00;59.30;;;;;;5005415;28;20290;-63
2022/05/05 03:40:45;;;;;;;3.00;1.65;;;20.00;59.20;;;;;;5004580;28;20193;-65
2022/05/05 03:43:15;;;;;;;1.88;1.27;;;20.00;59.20;;;;;;5005729;28;20605;-64
2022/05/05 03:45:48;;;;;;;1.85;1.60;;;20.10;59.20;;;;;;5004133;28;20527;-63
2022/05/05 03:48:22;;;;;;;1.70;1.50;;;20.10;59.20;;;;;;5004940;28;20225;-67
2022/05/05 03:50:52;;;;;;;2.75;1.40;;;20.10;59.10;;;;;;5005279;28;20193;-63
2022/05/05 03:53:25;;;;;;;1.83;1.42;;;20.10;59.10;;;;;;5004799;28;20243;-63
2022/05/05 03:55:55;;;;;;;2.30;1.20;;;20.20;59.10;;;;;;5003850;28;20201;-63
2022/05/05 03:58:26;;;;;;;1.77;1.50;;;20.20;59.10;;;;;;5005545;28;20209;-66
2022/05/05 04:00:56;;;;;;;2.97;1.38;;;20.20;59.00;;;;;;5005484;28;20820;-63
2022/05/05 04:03:33;;;;;;;1.42;1.30;;;20.20;58.90;;;;;;5007928;28;20188;-62
2022/05/05 04:06:04;;;;;;;2.28;1.40;;;20.20;58.80;;;;;;5008103;28;20200;-62
2022/05/05 04:08:37;;;;;;;2.00;1.58;;;20.20;58.80;;;;;;5008313;28;20221;-63
2022/05/05 04:11:08;;;;;;;1.40;1.30;;;20.30;58.90;;;;;;5009103;28;20255;-62
2022/05/05 04:13:39;;;;;;;3.97;1.50;;;20.30;58.80;;;;;;5007899;28;20193;-62
2022/05/05 04:16:10;;;;;;;2.00;1.77;;;20.30;58.80;;;;;;5008263;28;20198;-65
2022/05/05 04:18:41;;;;;;;1.30;1.20;;;20.30;58.70;;;;;;5007246;28;20307;-64
2022/05/05 04:21:11;;;;;;;1.45;1.30;;;20.30;58.70;;;;;;5006114;28;20205;-63
2022/05/05 04:23:44;;;;;;;2.13;1.42;;;20.30;58.70;;;;;;5008007;28;20202;-67
2022/05/05 04:26:19;;;;;;;1.63;1.40;;;20.30;58.70;;;;;;5008163;28;20251;-65
2022/05/05 04:28:51;;;;;;;1.50;1.40;;;20.30;58.60;;;;;;5007745;28;20702;-62
2022/05/05 04:31:22;;;;;;;2.33;1.30;;;20.30;58.60;;;;;;5007856;28;20197;-63
2022/05/05 04:33:53;;;;;;;2.75;1.60;;;20.30;59.20;;;;;;5007853;28;20687;-64
2022/05/05 04:36:23;;;;;;;1.25;1.15;;;20.30;58.60;;;;;;5007941;28;20220;-63
2022/05/05 04:38:56;;;;;;;2.20;1.38;;;20.30;58.50;;;;;;5007443;28;20247;-63
2022/05/05 04:41:26;;;;;;;2.15;1.75;;;20.30;58.60;;;;;;5006301;28;20275;-66
2022/05/05 04:43:57;;;;;;;1.60;1.25;;;20.30;58.50;;;;;;5007234;28;20260;-60
2022/05/05 04:46:27;;;;;;;1.27;1.15;;;20.30;58.50;;;;;;5006471;28;20193;-62
2022/05/05 04:48:58;;;;;;;1.70;1.48;;;20.40;59.20;;;;;;5006878;28;20243;-60
2022/05/05 04:51:29;;;;;;;3.22;1.60;;;20.40;58.50;;;;;;5005767;28;20193;-60
2022/05/05 04:54:01;;;;;;;1.40;1.30;;;20.30;58.40;;;;;;5007528;28;20279;-63
2022/05/05 04:56:32;;;;;;;1.58;1.40;;;20.30;58.40;;;;;;5006157;28;20193;-61
2022/05/05 04:59:03;;;;;;;2.75;1.70;;;20.30;58.40;;;;;;5005800;28;20274;-63
2022/05/05 05:01:33;;;;;;;1.38;1.23;;;20.30;58.40;;;;;;5005907;28;20188;-67
2022/05/05 05:04:04;;;;;;;2.05;1.40;;;20.30;58.40;;;;;;5006306;28;20228;-64
2022/05/05 05:06:34;;;;;;;1.70;1.25;;;20.30;58.40;;;;;;5006434;28;20217;-64
2022/05/05 05:09:07;;;;;;;1.45;1.35;;;20.30;58.40;;;;;;5007869;28;20192;-64
2022/05/05 05:11:38;;;;;;;3.65;1.50;;;20.30;58.40;;;;;;5005932;28;20697;-67
2022/05/05 05:14:08;;;;;;;1.50;1.40;;;20.30;58.40;;;;;;5007260;28;20833;-67
2022/05/05 05:16:39;;;;;;;1.63;1.38;;;20.30;59.00;;;;;;5005578;28;20220;-61
2022/05/05 05:19:10;;;;;;;1.70;1.58;;;20.30;58.40;;;;;;5008131;28;20220;-61
2022/05/05 05:21:40;;;;;;;2.08;1.65;;;20.30;58.40;;;;;;5006070;28;20228;-66
2022/05/05 05:24:13;;;;;;;2.00;1.70;;;20.30;58.40;;;;;;5007533;28;20193;-62
2022/05/05 05:26:44;;;;;;;1.70;1.60;;;20.20;58.40;;;;;;5005850;28;20768;-60
2022/05/05 05:29:14;;;;;;;1.45;1.35;;;20.30;58.40;;;;;;5007617;28;20219;-68
2022/05/05 05:31:45;;;;;;;1.52;1.42;;;20.30;58.40;;;;;;5005991;28;20189;-68
2022/05/05 05:34:15;;;;;;;1.90;1.75;;;20.30;58.40;;;;;;5007104;28;20283;-64
2022/05/05 05:36:49;;;;;;;2.00;1.80;;;20.20;58.40;;;;;;5006048;28;20677;-60
2022/05/05 05:39:22;;;;;;;1.88;1.75;;;20.20;58.40;;;;;;5006257;28;20220;-59
2022/05/05 05:41:53;;;;;;;2.33;1.75;;;20.20;58.40;;;;;;5008199;28;20228;-60
2022/05/05 05:44:23;;;;;;;1.77;1.67;;;20.20;58.40;;;;;;5008247;28;20224;-60
2022/05/05 05:46:54;;;;;;;1.85;1.70;;;20.20;58.50;;;;;;5007305;28;20747;-62
2022/05/05 05:49:24;;;;;;;2.15;1.67;;;20.20;58.50;;;;;;5007817;28;20192;-61
2022/05/05 05:51:55;;;;;;;1.70;1.48;;;20.20;58.60;;;;;;5008520;28;20205;-62
2022/05/05 05:54:27;;;;;;;1.70;1.60;;;20.20;58.60;;;;;;5007503;28;20236;-59
2022/05/05 05:56:58;;;;;;;2.15;2.00;;;20.20;59.10;;;;;;5008318;28;20853;-59
2022/05/05 05:59:28;;;;;;;2.50;1.90;;;20.20;59.10;;;;;;5007721;28;20278;-60
2022/05/05 06:04:54;;;;;;;1.95;1.85;;;20.20;59.40;;;;;;4961734;28;20213;-64
2022/05/05 06:07:25;;;;;;;2.20;2.00;;;20.20;59.20;;;;;;5005684;28;20278;-60
2022/05/05 06:09:58;;;;;;;1.90;1.80;;;20.20;59.20;;;;;;5005927;28;20228;-60
2022/05/05 06:12:28;;;;;;;1.95;1.85;;;20.20;59.20;;;;;;5007393;28;20193;-62
2022/05/05 06:14:59;;;;;;;2.40;2.20;;;20.20;59.20;;;;;;5007369;28;20247;-60
2022/05/05 06:17:29;;;;;;;2.17;1.88;;;20.20;59.10;;;;;;5005783;28;20237;-63
2022/05/05 06:20:00;;;;;;;1.80;1.55;;;20.20;59.10;;;;;;5006870;28;20306;-64
2022/05/05 06:22:30;;;;;;;2.17;1.95;;;20.20;58.90;;;;;;5006173;28;20232;-61
2022/05/05 06:25:03;;;;;;;1.83;1.73;;;20.20;58.90;;;;;;5006883;28;20251;-62
2022/05/05 06:27:33;;;;;;;2.53;2.33;;;20.10;58.90;;;;;;5003704;28;20709;-64
2022/05/05 06:30:04;;;;;;;2.40;2.20;;;20.10;58.80;;;;;;5007331;28;20251;-62
2022/05/05 06:32:34;;;;;;;2.00;1.80;;;20.10;58.70;;;;;;5005766;28;20280;-64
2022/05/05 06:35:05;;;;;;;1.80;1.70;;;20.10;58.70;;;;;;5008256;28;20205;-60
2022/05/05 06:37:36;;;;;;;2.22;2.03;;;20.10;58.70;;;;;;5005062;28;20216;-61
2022/05/05 06:40:09;;;;;;;2.10;2.00;;;20.20;58.80;;;;;;5003228;28;20282;-62
2022/05/05 06:42:41;;;;;;;1.92;1.83;;;20.10;58.80;;;;;;5005228;28;20612;-61
2022/05/05 06:45:12;;;;;;;2.13;1.92;;;20.10;58.90;;;;;;5005961;28;20196;-61
2022/05/05 06:47:43;;;;;;;2.30;1.80;;;20.10;58.90;;;;;;5005313;28;20224;-63
2022/05/05 06:50:15;;;;;;;3.42;2.20;;;20.10;58.90;;;;;;5005642;28;20193;-59
2022/05/05 06:52:45;;;;;;;2.03;1.85;;;20.10;58.90;;;;;;5004929;28;20202;-61
2022/05/05 06:55:18;;;;;;;1.90;1.80;;;20.10;58.90;;;;;;5005881;28;20197;-64
2022/05/05 06:57:49;;;;;;;2.00;1.90;;;20.10;58.90;;;;;;5005099;28;20248;-62
2022/05/05 07:00:19;;;;;;;2.20;2.00;;;20.00;58.90;;;;;;5005841;28;20248;-65
2022/05/05 07:02:48;;;;;;;2.10;1.95;;;20.10;58.90;;;;;;5003224;28;20243;-61
2022/05/05 07:05:27;;;;;;;2.05;1.92;;;20.00;58.80;;;;;;5004245;28;20200;-61
2022/05/05 07:07:57;;;;;;;2.45;2.25;;;20.00;58.80;;;;;;5005178;28;20271;-62
2022/05/05 07:13:16;;;;;;;2.20;2.03;;;20.00;58.70;;;;;;5005258;28;20255;-65
2022/05/05 07:15:47;;;;;;;2.08;1.90;;;20.00;58.70;;;;;;5005277;28;20565;-60
2022/05/05 07:18:17;;;;;;;2.20;2.10;;;20.00;58.70;;;;;;5005494;28;20759;-60
2022/05/05 07:20:48;;;;;;;2.45;2.05;;;20.00;58.70;;;;;;5004910;28;20628;-60
2022/05/05 07:23:18;;;;;;;2.25;2.05;;;20.00;58.70;;;;;;5005788;28;20199;-61
2022/05/05 07:25:53;;;;;;;2.10;1.92;;;19.90;58.70;;;;;;5004773;28;20756;-61
2022/05/05 07:28:23;;;;;;;2.15;2.03;;;19.90;58.70;;;;;;5004929;28;20270;-62
2022/05/05 07:30:54;;;;;;;2.10;1.92;;;19.90;58.70;;;;;;5003811;28;20274;-62
2022/05/05 07:33:26;;;;;;;2.20;2.08;;;19.90;58.80;;;;;;5004188;28;20213;-63
2022/05/05 07:35:57;;;;;;;2.05;1.95;;;19.90;58.80;;;;;;5002348;28;20208;-61
2022/05/05 07:38:28;;;;;;;2.33;2.13;;;19.90;58.80;;;;;;4995817;28;20217;-61
2022/05/05 07:41:00;;;;;;;2.30;2.10;;;19.80;58.80;;;;;;4995235;28;20225;-62
2022/05/05 07:43:30;;;;;;;2.38;2.17;;;19.80;58.80;;;;;;4995036;28;20197;-61
2022/05/05 07:46:01;;;;;;;2.30;2.10;;;19.80;58.80;;;;;;4994832;28;20197;-62
2022/05/05 07:48:31;;;;;;;2.03;1.92;;;19.80;58.80;;;;;;4994685;28;20276;-61
2022/05/05 07:51:02;;;;;;;2.20;2.05;;;19.80;58.80;;;;;;4994897;28;20194;-61
2022/05/05 07:53:33;;;;;;;2.40;2.20;;;19.90;58.80;;;;;;4994617;28;20558;-61
2022/05/05 07:56:06;;;;;;;2.47;2.28;;;19.80;58.80;;;;;;4995431;28;20212;-61
2022/05/05 07:58:36;;;;;;;2.38;2.15;;;19.80;58.80;;;;;;4995194;28;20218;-61
2022/05/05 08:01:07;;;;;;;2.22;2.10;;;19.80;58.80;;;;;;4995621;28;20226;-61
2022/05/05 08:03:37;;;;;;;2.20;2.00;;;19.80;58.80;;;;;;4995397;28;20197;-60
2022/05/05 08:06:08;;;;;;;2.33;2.13;;;19.80;58.70;;;;;;4994827;28;20228;-61
2022/05/05 08:08:38;;;;;;;1.83;1.73;;;19.80;58.70;;;;;;4994562;28;20218;-59
2022/05/05 08:11:11;;;;;;;2.35;2.15;;;19.70;58.70;;;;;;4995294;28;20619;-61
2022/05/05 08:13:41;;;;;;;2.13;2.03;;;19.80;58.70;;;;;;4995039;28;20201;-64
2022/05/05 08:16:12;;;;;;;2.28;2.08;;;19.80;58.80;;;;;;4994625;28;20252;-62
2022/05/05 08:18:42;;;;;;;2.25;2.08;;;19.70;58.70;;;;;;4994947;28;20197;-62
2022/05/05 08:21:13;;;;;;;2.40;2.20;;;19.70;58.80;;;;;;4994976;28;20225;-62
2022/05/05 08:23:43;;;;;;;2.30;2.10;;;19.70;58.80;;;;;;4993874;28;20264;-62
2022/05/05 08:29:17;;;;;;;2.10;2.00;;;19.70;58.90;;;;;;4934454;29;20195;-65
2022/05/05 08:31:48;;;;;;;2.35;2.13;;;19.70;58.80;;;;;;4933942;29;20211;-61
2022/05/05 08:34:18;;;;;;;2.30;2.08;;;19.60;58.80;;;;;;4962602;28;20806;-61
2022/05/05 08:36:49;;;;;;;2.30;2.10;;;19.70;58.90;;;;;;4994157;28;20217;-61
2022/05/05 08:39:20;;;;;;;2.10;2.00;;;19.70;58.80;;;;;;4994345;28;20201;-60
2022/05/05 08:41:53;;;;;;;1.98;1.77;;;19.60;58.80;;;;;;4994732;28;20221;-61
2022/05/05 08:44:23;;;;;;;2.55;1.83;;;19.60;58.70;;;;;;4994814;28;20201;-61
2022/05/05 08:46:54;;;;;;;2.15;2.00;;;19.60;58.70;;;;;;4994288;28;20229;-59
2022/05/05 08:49:26;;;;;;;1.95;1.85;;;19.60;58.80;;;;;;4996415;28;20200;-65
2022/05/05 08:51:57;;;;;;;2.25;2.05;;;19.60;58.80;;;;;;4993945;28;20248;-65
2022/05/05 08:54:29;;;;;;;2.38;2.10;;;19.60;58.70;;;;;;4994385;28;20201;-61
2022/05/05 08:57:01;;;;;;;2.28;2.08;;;19.50;58.70;;;;;;4994306;28;20559;-61
2022/05/05 08:59:32;;;;;;;2.28;2.10;;;19.60;58.70;;;;;;4994359;28;20197;-63
2022/05/05 09:02:03;;;;;;;2.50;2.30;;;19.50;58.70;;;;;;4993701;28;20229;-60
2022/05/05 09:04:33;;;;;;;2.17;1.90;;;19.50;58.70;;;;;;4994213;28;20197;-64
2022/05/05 09:07:04;;;;;;;2.28;2.10;;;19.50;58.70;;;;;;4994158;28;20213;-64
2022/05/05 09:09:35;;;;;;;1.85;1.75;;;19.50;58.80;;;;;;4996227;28;20256;-62
2022/05/05 09:12:18;;;;;;;2.10;2.00;;;19.50;58.80;;;;;;4995891;28;20256;-61
2022/05/05 09:14:50;;;;;;;1.98;1.88;;;19.50;58.80;;;;;;4995558;28;20202;-61
2022/05/05 09:17:22;;;;;;;2.65;2.25;;;19.40;58.70;;;;;;4996374;28;20232;-64
2022/05/05 09:19:53;;;;;;;1.77;1.67;;;19.40;59.00;;;;;;4996517;28;20202;-64
2022/05/05 09:22:25;;;;;;;2.20;2.00;;;19.40;58.80;;;;;;4995249;28;20206;-68
2022/05/05 09:24:57;;;;;;;1.83;1.73;;;19.40;58.70;;;;;;4993797;28;20252;-67
2022/05/05 09:27:31;;;;;;;2.00;1.90;;;19.40;58.70;;;;;;4993434;28;20268;-62
2022/05/05 09:30:10;;;;;;;2.22;2.03;;;19.40;58.70;;;;;;4993510;28;20208;-59
2022/05/05 09:32:42;;;;;;;2.20;2.00;;;19.40;58.80;;;;;;4993324;28;20205;-60
2022/05/05 09:35:13;;;;;;;1.70;1.60;;;19.40;59.00;;;;;;4993751;28;20193;-67
2022/05/05 09:37:47;;;;;;;2.20;2.00;;;19.30;58.90;;;;;;4993121;28;20213;-68
2022/05/05 09:40:20;;;;;;;5.57;2.20;;;19.30;59.20;;;;;;4992510;28;20291;-67
2022/05/05 09:42:53;;;;;;;2.63;2.40;;;19.30;59.70;;;;;;5005966;28;20284;-62
2022/05/05 09:45:26;;;;;;;3.35;2.10;;;19.30;61.10;;;;;;5007947;28;20193;-61
2022/05/05 09:47:57;;;;;;;2.90;2.15;;;19.30;61.10;;;;;;5007621;28;20221;-62
2022/05/05 09:50:29;;;;;;;5.00;2.35;;;19.30;60.90;;;;;;5004761;28;20255;-63
2022/05/05 09:58:39;;;;;;;4.20;2.20;;;19.30;60.70;;;;;;5007963;28;20688;-61
2022/05/05 10:01:12;;;;;;;5.63;2.53;;;19.30;60.70;;;;;;5007545;28;20266;-61
2022/05/05 10:04:06;;;;;;;2.85;2.00;;;19.30;60.60;;;;;;5007583;28;20232;-66
2022/05/05 10:06:38;;;;;;;3.58;3.13;;;19.30;60.40;;;;;;5007742;28;20216;-61
2022/05/05 10:09:09;;;;;;;4.97;2.50;;;19.20;60.50;;;;;;5008454;28;20196;-64
2022/05/05 10:11:40;;;;;;;5.10;2.80;;;19.20;60.40;;;;;;5007581;28;20252;-66
2022/05/05 10:14:13;;;;;;;4.88;2.22;;;19.20;60.30;;;;;;5008149;28;20656;-61
2022/05/05 10:16:45;;;;;;;3.55;2.25;;;19.20;60.30;;;;;;5004553;28;20246;-61
2022/05/05 10:19:15;;;;;;;4.03;3.00;;;19.20;60.20;;;;;;5008301;28;20197;-60
2022/05/05 10:21:54;;;;;;;4.38;2.80;;;19.20;60.20;;;;;;5007408;28;20232;-61
2022/05/05 10:24:28;;;;;;;2.75;2.55;;;19.10;60.10;;;;;;5006687;28;20663;-65
2022/05/05 10:26:59;;;;;;;5.00;2.60;;;19.10;60.10;;;;;;5006130;28;20299;-62
2022/05/05 10:29:46;;;;;;;3.33;2.20;;;19.10;60.00;;;;;;5006991;28;20189;-61
2022/05/05 10:32:21;;;;;;;5.32;3.35;;;19.10;60.00;;;;;;5007251;28;20204;-61
2022/05/05 10:34:56;;;;;;;4.32;2.90;;;19.10;60.00;;;;;;5007397;28;20205;-60
2022/05/05 10:37:36;;;;;;;3.67;3.13;;;19.00;60.30;;;;;;5007193;28;20212;-61
2022/05/05 10:40:08;;;;;;;3.45;2.70;;;19.00;60.60;;;;;;5008424;28;20722;-62
2022/05/05 10:42:40;;;;;;;3.30;2.67;;;19.00;60.50;;;;;;5006479;28;20231;-59
2022/05/05 10:45:17;;;;;;;3.38;2.78;;;19.00;60.40;;;;;;5008035;28;20700;-61
2022/05/05 10:48:31;;;;;;;3.38;2.95;;;19.00;60.30;;;;;;5006394;28;20265;-62
2022/05/05 10:51:10;;;;;;;4.93;3.00;;;19.00;60.20;;;;;;5004904;28;20279;-60
2022/05/05 10:53:42;;;;;;;4.18;3.05;;;18.90;60.00;;;;;;5006905;28;20201;-63
2022/05/05 10:56:39;;;;;;;3.10;2.80;;;18.90;60.00;;;;;;5007351;28;20259;-62
2022/05/05 10:59:11;;;;;;;2.83;2.50;;;18.90;59.90;;;;;;4986273;28;20204;-61
2022/05/05 11:02:04;;;;;;;3.42;2.70;;;18.90;59.90;;;;;;5006468;28;20261;-61
2022/05/05 11:04:35;;;;;;;2.90;2.53;;;18.80;59.80;;;;;;5006749;28;20197;-62
2022/05/05 11:07:38;;;;;;;3.15;2.75;;;18.80;59.80;;;;;;5006476;28;20314;-61
2022/05/05 11:10:10;;;;;;;3.53;2.60;;;18.80;59.80;;;;;;5006709;28;20219;-61
2022/05/05 11:12:41;;;;;;;3.15;2.40;;;18.80;59.70;;;;;;5005871;28;20201;-60
2022/05/05 11:23:51;;;;;;;3.33;2.55;;;18.70;59.60;;;;;;5004243;28;20270;-63
2022/05/05 11:26:22;;;;;;;3.33;2.17;;;18.60;59.50;;;;;;5005246;28;20218;-61
2022/05/05 11:28:53;;;;;;;2.50;2.30;;;18.60;59.60;;;;;;5005643;28;20188;-62
2022/05/05 11:31:24;;;;;;;2.83;2.55;;;18.60;59.50;;;;;;5006002;28;20193;-60
2022/05/05 11:33:58;;;;;;;3.45;2.75;;;18.60;59.50;;;;;;5006238;28;20266;-62
2022/05/05 11:36:33;;;;;;;2.65;2.30;;;18.60;59.50;;;;;;5005582;28;20201;-62
2022/05/05 11:39:03;;;;;;;3.05;2.30;;;18.60;59.50;;;;;;5006607;28;20565;-61
2022/05/05 11:41:35;;;;;;;3.20;2.50;;;18.50;59.40;;;;;;5004025;28;20221;-61
2022/05/05 11:44:17;;;;;;;2.63;2.42;;;18.50;59.40;;;;;;5005974;28;20280;-62
2022/05/05 11:46:52;;;;;;;3.75;2.45;;;18.50;59.40;;;;;;5005320;28;20250;-62
2022/05/05 11:49:24;;;;;;;2.90;2.33;;;18.50;59.40;;;;;;5005100;28;20288;-64
2022/05/05 11:51:56;;;;;;;2.60;2.40;;;18.50;59.40;;;;;;5006260;28;20197;-64
2022/05/05 11:54:30;;;;;;;4.65;2.80;;;18.50;59.40;;;;;;5003636;28;20197;-61
2022/05/05 11:57:01;;;;;;;2.30;2.10;;;18.40;59.30;;;;;;5005003;28;20626;-62
2022/05/05 12:02:21;;;;;;;2.47;2.22;;;18.40;59.30;;;;;;4991221;28;20700;-61
2022/05/05 12:04:54;;;;;;;3.15;2.40;;;18.40;59.30;;;;;;4990427;28;20201;-62
2022/05/05 12:07:26;;;;;;;2.60;2.35;;;18.30;59.20;;;;;;4989647;28;20217;-62
2022/05/05 12:09:58;;;;;;;3.20;2.40;;;18.30;59.20;;;;;;4990546;28;20198;-63
2022/05/05 12:12:29;;;;;;;2.42;2.22;;;18.30;59.30;;;;;;4989645;28;20244;-63
2022/05/05 12:15:02;;;;;;;2.63;2.30;;;18.30;59.30;;;;;;4989405;28;20193;-61
2022/05/05 12:17:39;;;;;;;2.85;2.30;;;18.30;59.30;;;;;;4989972;28;20226;-61
2022/05/05 12:20:13;;;;;;;2.78;2.47;;;18.20;59.80;;;;;;4990152;28;20729;-61
2022/05/05 12:22:55;;;;;;;2.50;2.30;;;18.20;59.20;;;;;;4989986;28;20272;-62
2022/05/05 12:25:27;;;;;;;3.70;2.30;;;18.20;59.20;;;;;;4993580;28;20827;-61
2022/05/05 12:28:09;;;;;;;2.65;2.45;;;18.20;59.10;;;;;;4993221;28;20271;-60
2022/05/05 12:30:42;;;;;;;2.72;2.50;;;18.20;59.10;;;;;;4993107;28;20300;-62
2022/05/05 12:33:13;;;;;;;2.30;2.10;;;18.20;59.10;;;;;;4992540;28;20241;-62
2022/05/05 12:35:46;;;;;;;2.78;2.03;;;18.10;59.10;;;;;;4993343;28;20320;-62
2022/05/05 12:38:20;;;;;;;2.78;2.10;;;18.10;59.10;;;;;;4993800;28;20959;-61
2022/05/05 12:41:09;;;;;;;2.05;1.90;;;18.10;59.10;;;;;;4993021;28;20277;-62
2022/05/05 12:43:41;;;;;;;2.72;2.00;;;18.10;59.10;;;;;;4993115;28;20233;-62
2022/05/05 12:46:12;;;;;;;2.08;1.88;;;18.10;59.10;;;;;;4992421;28;20256;-61
2022/05/05 12:48:42;;;;;;;2.35;2.15;;;18.10;59.10;;;;;;4995273;28;20247;-61
2022/05/05 12:51:21;;;;;;;3.03;2.35;;;18.10;59.10;;;;;;4992995;28;20206;-63
2022/05/05 12:59:47;;;;;;;2.30;2.10;;;18.00;59.10;;;;;;4992947;28;20677;-61
2022/05/05 13:02:18;;;;;;;3.08;1.98;;;18.00;59.10;;;;;;4973413;28;20720;-64
2022/05/05 13:04:49;;;;;;;2.47;1.95;;;18.00;59.10;;;;;;4992512;28;20248;-63
2022/05/05 13:07:24;;;;;;;2.00;1.90;;;18.00;59.10;;;;;;4992636;28;20213;-62
2022/05/05 13:09:55;;;;;;;2.17;1.80;;;17.90;59.10;;;;;;4992361;28;20300;-61
2022/05/05 13:12:25;;;;;;;2.85;2.10;;;17.90;59.00;;;;;;4992781;28;20205;-65
2022/05/05 13:14:56;;;;;;;2.30;1.90;;;17.90;59.10;;;;;;4991992;28;20190;-62
2022/05/05 13:17:26;;;;;;;2.20;2.00;;;17.90;59.10;;;;;;4992491;28;20264;-62
2022/05/05 13:19:57;;;;;;;2.88;2.10;;;17.90;59.10;;;;;;4992569;28;20197;-62
2022/05/05 13:22:30;;;;;;;2.20;1.98;;;17.90;59.10;;;;;;4992588;28;20659;-62
2022/05/05 13:25:00;;;;;;;2.00;1.85;;;17.90;59.10;;;;;;4992613;28;20208;-64
2022/05/05 13:27:31;;;;;;;1.90;1.80;;;17.80;59.00;;;;;;4992501;28;20697;-63
2022/05/05 13:30:01;;;;;;;2.25;2.05;;;17.80;59.10;;;;;;4992319;28;20197;-63
2022/05/05 13:32:34;;;;;;;2.17;1.88;;;17.90;59.10;;;;;;4992057;28;20650;-61
2022/05/05 13:35:04;;;;;;;2.20;2.00;;;17.80;59.10;;;;;;4991561;28;20194;-63
2022/05/05 13:37:37;;;;;;;2.15;1.90;;;17.80;59.00;;;;;;4991827;28;20253;-62
2022/05/05 13:40:09;;;;;;;3.10;1.83;;;17.80;59.10;;;;;;4992989;28;20556;-62
2022/05/05 13:42:39;;;;;;;2.20;1.98;;;17.80;59.10;;;;;;4992211;28;20716;-62
2022/05/05 13:45:10;;;;;;;1.90;1.77;;;17.80;59.10;;;;;;4991457;28;20258;-60
2022/05/05 13:47:41;;;;;;;1.65;1.55;;;17.80;59.10;;;;;;4991703;28;20213;-61
2022/05/05 13:50:12;;;;;;;2.22;2.00;;;17.80;59.10;;;;;;4991951;28;20533;-60
2022/05/05 13:52:45;;;;;;;2.03;1.90;;;17.80;59.10;;;;;;4991841;28;20197;-61
2022/05/05 13:55:18;;;;;;;2.72;2.10;;;17.80;59.00;;;;;;4991996;28;20304;-60